sensor_id;sensor_type;location;lat;lon;timestamp;temperature;humidity
28725;DHT22;43472;48.980;9.646;2023-02-28T00:00:38;1.10;94.20
28725;DHT22;43472;48.980;9.646;2023-02-28T00:05:40;1.40;94.10
28725;DHT22;43472;48.980;9.646;2023-02-28T00:10:43;1.10;94.60
28725;DHT22;43472;48.980;9.646;2023-02-28T00:15:45;1.00;94.90
28725;DHT22;43472;48.980;9.646;2023-02-28T00:20:47;1.50;94.40
28725;DHT22;43472;48.980;9.646;2023-02-28T00:25:50;1.50;94.60
28725;DHT22;43472;48.980;9.646;2023-02-28T00:30:52;1.00;95.10
28725;DHT22;43472;48.980;9.646;2023-02-28T00:36:11;1.20;95.40
28725;DHT22;43472;48.980;9.646;2023-02-28T00:41:13;1.30;95.40
28725;DHT22;43472;48.980;9.646;2023-02-28T00:46:15;1.10;95.80
28725;DHT22;43472;48.980;9.646;2023-02-28T00:51:16;1.60;95.80
28725;DHT22;43472;48.980;9.646;2023-02-28T00:56:18;1.20;95.90
28725;DHT22;43472;48.980;9.646;2023-02-28T01:01:20;1.30;96.00
28725;DHT22;43472;48.980;9.646;2023-02-28T01:06:22;1.30;96.00
28725;DHT22;43472;48.980;9.646;2023-02-28T01:11:24;1.50;95.80
28725;DHT22;43472;48.980;9.646;2023-02-28T01:16:27;1.20;96.30
28725;DHT22;43472;48.980;9.646;2023-02-28T01:21:29;1.10;96.60
28725;DHT22;43472;48.980;9.646;2023-02-28T01:26:31;1.00;96.70
28725;DHT22;43472;48.980;9.646;2023-02-28T01:31:34;1.00;96.60
28725;DHT22;43472;48.980;9.646;2023-02-28T01:36:35;1.10;97.00
28725;DHT22;43472;48.980;9.646;2023-02-28T01:41:38;0.90;97.30
28725;DHT22;43472;48.980;9.646;2023-02-28T01:46:41;0.90;97.60
28725;DHT22;43472;48.980;9.646;2023-02-28T01:51:48;1.00;97.70
28725;DHT22;43472;48.980;9.646;2023-02-28T01:57:02;0.90;97.90
28725;DHT22;43472;48.980;9.646;2023-02-28T02:02:05;1.10;97.80
28725;DHT22;43472;48.980;9.646;2023-02-28T02:07:08;1.10;97.90
28725;DHT22;43472;48.980;9.646;2023-02-28T02:17:45;1.20;98.20
28725;DHT22;43472;48.980;9.646;2023-02-28T02:39:05;1.20;98.50
28725;DHT22;43472;48.980;9.646;2023-02-28T02:44:31;1.10;99.00
28725;DHT22;43472;48.980;9.646;2023-02-28T02:49:39;1.30;99.10
28725;DHT22;43472;48.980;9.646;2023-02-28T02:54:45;1.10;99.30
28725;DHT22;43472;48.980;9.646;2023-02-28T02:59:50;1.10;99.00
28725;DHT22;43472;48.980;9.646;2023-02-28T03:04:57;0.90;99.70
28725;DHT22;43472;48.980;9.646;2023-02-28T03:10:02;1.80;99.30
28725;DHT22;43472;48.980;9.646;2023-02-28T03:15:19;1.20;99.10
28725;DHT22;43472;48.980;9.646;2023-02-28T03:20:48;1.10;99.10
28725;DHT22;43472;48.980;9.646;2023-02-28T03:26:04;1.30;99.60
28725;DHT22;43472;48.980;9.646;2023-02-28T03:31:19;1.30;99.70
28725;DHT22;43472;48.980;9.646;2023-02-28T03:36:27;1.20;99.90
28725;DHT22;43472;48.980;9.646;2023-02-28T03:41:35;1.40;99.80
28725;DHT22;43472;48.980;9.646;2023-02-28T03:46:44;1.30;99.60
28725;DHT22;43472;48.980;9.646;2023-02-28T03:51:49;1.30;99.90
28725;DHT22;43472;48.980;9.646;2023-02-28T03:56:59;1.30;99.90
28725;DHT22;43472;48.980;9.646;2023-02-28T04:02:02;1.20;99.90
28725;DHT22;43472;48.980;9.646;2023-02-28T04:07:07;1.30;99.90
28725;DHT22;43472;48.980;9.646;2023-02-28T04:12:09;1.20;99.90
28725;DHT22;43472;48.980;9.646;2023-02-28T04:17:11;1.30;99.90
28725;DHT22;43472;48.980;9.646;2023-02-28T04:22:13;1.30;99.90
28725;DHT22;43472;48.980;9.646;2023-02-28T04:27:15;1.20;99.90
28725;DHT22;43472;48.980;9.646;2023-02-28T04:32:17;1.20;99.90
28725;DHT22;43472;48.980;9.646;2023-02-28T04:37:19;1.00;99.90
28725;DHT22;43472;48.980;9.646;2023-02-28T04:42:21;1.10;99.90
28725;DHT22;43472;48.980;9.646;2023-02-28T04:47:23;1.10;99.90
28725;DHT22;43472;48.980;9.646;2023-02-28T04:52:27;1.50;99.90
28725;DHT22;43472;48.980;9.646;2023-02-28T04:57:29;1.20;99.90
28725;DHT22;43472;48.980;9.646;2023-02-28T05:02:35;1.20;99.90
28725;DHT22;43472;48.980;9.646;2023-02-28T05:07:37;1.20;99.90
28725;DHT22;43472;48.980;9.646;2023-02-28T05:12:39;1.20;99.90
28725;DHT22;43472;48.980;9.646;2023-02-28T05:17:41;1.20;99.90
28725;DHT22;43472;48.980;9.646;2023-02-28T05:22:44;1.10;99.90
28725;DHT22;43472;48.980;9.646;2023-02-28T05:27:46;1.20;99.90
28725;DHT22;43472;48.980;9.646;2023-02-28T05:32:51;1.30;99.90
28725;DHT22;43472;48.980;9.646;2023-02-28T05:37:53;1.20;99.90
28725;DHT22;43472;48.980;9.646;2023-02-28T05:42:55;1.10;99.90
28725;DHT22;43472;48.980;9.646;2023-02-28T05:47:57;1.00;99.90
28725;DHT22;43472;48.980;9.646;2023-02-28T05:52:59;1.00;99.90
28725;DHT22;43472;48.980;9.646;2023-02-28T05:58:01;1.00;99.90
28725;DHT22;43472;48.980;9.646;2023-02-28T06:03:03;1.10;99.90
28725;DHT22;43472;48.980;9.646;2023-02-28T06:08:05;1.20;99.90
28725;DHT22;43472;48.980;9.646;2023-02-28T06:13:08;1.20;99.90
28725;DHT22;43472;48.980;9.646;2023-02-28T06:18:10;1.00;99.90
28725;DHT22;43472;48.980;9.646;2023-02-28T06:23:12;1.30;99.90
28725;DHT22;43472;48.980;9.646;2023-02-28T06:28:15;0.80;99.90
28725;DHT22;43472;48.980;9.646;2023-02-28T06:33:17;0.80;99.90
28725;DHT22;43472;48.980;9.646;2023-02-28T06:38:19;0.90;99.90
28725;DHT22;43472;48.980;9.646;2023-02-28T06:43:23;1.10;99.90
28725;DHT22;43472;48.980;9.646;2023-02-28T06:48:26;1.20;99.90
28725;DHT22;43472;48.980;9.646;2023-02-28T06:53:29;1.10;99.90
28725;DHT22;43472;48.980;9.646;2023-02-28T06:58:31;1.00;99.90
28725;DHT22;43472;48.980;9.646;2023-02-28T07:03:34;4.30;99.90
28725;DHT22;43472;48.980;9.646;2023-02-28T07:08:37;1.50;99.90
28725;DHT22;43472;48.980;9.646;2023-02-28T07:13:39;1.50;99.90
28725;DHT22;43472;48.980;9.646;2023-02-28T07:18:41;1.60;99.90
28725;DHT22;43472;48.980;9.646;2023-02-28T07:23:43;1.50;99.90
28725;DHT22;43472;48.980;9.646;2023-02-28T07:28:47;1.30;99.90
28725;DHT22;43472;48.980;9.646;2023-02-28T07:33:49;1.50;99.90
28725;DHT22;43472;48.980;9.646;2023-02-28T07:38:51;1.20;99.90
28725;DHT22;43472;48.980;9.646;2023-02-28T07:43:54;1.20;99.90
28725;DHT22;43472;48.980;9.646;2023-02-28T07:48:57;1.80;99.90
28725;DHT22;43472;48.980;9.646;2023-02-28T07:54:01;1.70;99.90
28725;DHT22;43472;48.980;9.646;2023-02-28T07:59:03;1.90;99.90
28725;DHT22;43472;48.980;9.646;2023-02-28T08:04:05;1.80;99.90
28725;DHT22;43472;48.980;9.646;2023-02-28T08:09:07;1.90;99.90
28725;DHT22;43472;48.980;9.646;2023-02-28T08:14:08;2.10;99.90
28725;DHT22;43472;48.980;9.646;2023-02-28T08:19:10;2.30;99.90
28725;DHT22;43472;48.980;9.646;2023-02-28T08:24:12;2.10;99.90
28725;DHT22;43472;48.980;9.646;2023-02-28T08:29:14;2.30;99.90
28725;DHT22;43472;48.980;9.646;2023-02-28T08:34:16;2.50;99.90
28725;DHT22;43472;48.980;9.646;2023-02-28T08:39:19;2.90;99.80
28725;DHT22;43472;48.980;9.646;2023-02-28T08:44:22;3.20;99.80
28725;DHT22;43472;48.980;9.646;2023-02-28T08:49:24;3.50;99.40
28725;DHT22;43472;48.980;9.646;2023-02-28T08:54:26;3.70;98.60
28725;DHT22;43472;48.980;9.646;2023-02-28T08:59:29;4.10;97.90
28725;DHT22;43472;48.980;9.646;2023-02-28T09:04:30;4.10;98.10
28725;DHT22;43472;48.980;9.646;2023-02-28T09:09:32;4.60;97.30
28725;DHT22;43472;48.980;9.646;2023-02-28T09:14:35;4.50;97.20
28725;DHT22;43472;48.980;9.646;2023-02-28T09:19:37;4.50;96.30
28725;DHT22;43472;48.980;9.646;2023-02-28T09:24:38;4.10;97.10
28725;DHT22;43472;48.980;9.646;2023-02-28T09:29:45;4.40;96.50
28725;DHT22;43472;48.980;9.646;2023-02-28T09:34:47;4.80;96.30
28725;DHT22;43472;48.980;9.646;2023-02-28T09:39:49;4.80;95.60
28725;DHT22;43472;48.980;9.646;2023-02-28T09:44:51;4.50;95.90
28725;DHT22;43472;48.980;9.646;2023-02-28T09:49:53;4.70;95.70
28725;DHT22;43472;48.980;9.646;2023-02-28T09:55:01;4.90;95.90
28725;DHT22;43472;48.980;9.646;2023-02-28T10:00:13;5.10;95.10
28725;DHT22;43472;48.980;9.646;2023-02-28T10:11:10;5.30;95.10
28725;DHT22;43472;48.980;9.646;2023-02-28T10:16:13;6.20;94.30
28725;DHT22;43472;48.980;9.646;2023-02-28T10:26:41;5.90;94.00
28725;DHT22;43472;48.980;9.646;2023-02-28T10:31:45;6.50;93.50
28725;DHT22;43472;48.980;9.646;2023-02-28T10:36:49;6.50;93.70
28725;DHT22;43472;48.980;9.646;2023-02-28T10:41:52;6.30;92.70
28725;DHT22;43472;48.980;9.646;2023-02-28T10:46:55;6.20;92.90
28725;DHT22;43472;48.980;9.646;2023-02-28T10:52:00;6.80;91.90
28725;DHT22;43472;48.980;9.646;2023-02-28T10:57:18;5.50;92.00
28725;DHT22;43472;48.980;9.646;2023-02-28T11:02:37;7.40;91.90
28725;DHT22;43472;48.980;9.646;2023-02-28T11:07:54;7.40;91.30
28725;DHT22;43472;48.980;9.646;2023-02-28T11:12:57;8.10;91.10
28725;DHT22;43472;48.980;9.646;2023-02-28T11:18:02;8.70;88.30
28725;DHT22;43472;48.980;9.646;2023-02-28T11:23:12;8.70;89.30
28725;DHT22;43472;48.980;9.646;2023-02-28T11:28:34;9.50;87.90
28725;DHT22;43472;48.980;9.646;2023-02-28T11:33:52;9.60;85.70
28725;DHT22;43472;48.980;9.646;2023-02-28T11:38:59;9.50;83.80
28725;DHT22;43472;48.980;9.646;2023-02-28T11:55:36;11.00;81.90
28725;DHT22;43472;48.980;9.646;2023-02-28T12:16:53;12.00;77.70
28725;DHT22;43472;48.980;9.646;2023-02-28T12:22:23;11.80;74.80
28725;DHT22;43472;48.980;9.646;2023-02-28T12:27:34;11.50;77.50
28725;DHT22;43472;48.980;9.646;2023-02-28T12:32:41;11.50;74.60
28725;DHT22;43472;48.980;9.646;2023-02-28T12:37:46;11.50;76.10
28725;DHT22;43472;48.980;9.646;2023-02-28T12:42:58;12.00;74.90
28725;DHT22;43472;48.980;9.646;2023-02-28T12:48:04;11.70;75.40
28725;DHT22;43472;48.980;9.646;2023-02-28T12:59:05;10.60;78.00
28725;DHT22;43472;48.980;9.646;2023-02-28T13:04:45;10.30;78.30
28725;DHT22;43472;48.980;9.646;2023-02-28T13:09:57;10.60;79.30
28725;DHT22;43472;48.980;9.646;2023-02-28T13:15:02;11.10;76.10
28725;DHT22;43472;48.980;9.646;2023-02-28T13:20:17;11.10;76.70
28725;DHT22;43472;48.980;9.646;2023-02-28T13:36:10;13.30;73.90
28725;DHT22;43472;48.980;9.646;2023-02-28T13:46:38;14.90;67.90
28725;DHT22;43472;48.980;9.646;2023-02-28T13:57:33;14.70;67.30
28725;DHT22;43472;48.980;9.646;2023-02-28T14:07:48;15.20;64.50
28725;DHT22;43472;48.980;9.646;2023-02-28T14:12:55;17.20;59.80
28725;DHT22;43472;48.980;9.646;2023-02-28T14:17:58;16.80;60.10
28725;DHT22;43472;48.980;9.646;2023-02-28T14:28:28;17.70;59.00
28725;DHT22;43472;48.980;9.646;2023-02-28T14:39:13;20.50;53.80
28725;DHT22;43472;48.980;9.646;2023-02-28T14:44:21;20.30;53.30
28725;DHT22;43472;48.980;9.646;2023-02-28T14:54:29;17.60;56.40
28725;DHT22;43472;48.980;9.646;2023-02-28T14:59:34;16.30;57.00
28725;DHT22;43472;48.980;9.646;2023-02-28T15:04:36;14.10;61.60
28725;DHT22;43472;48.980;9.646;2023-02-28T15:09:37;12.80;64.70
28725;DHT22;43472;48.980;9.646;2023-02-28T15:14:42;12.00;67.00
28725;DHT22;43472;48.980;9.646;2023-02-28T15:19:48;10.80;70.00
28725;DHT22;43472;48.980;9.646;2023-02-28T15:24:52;10.00;72.80
28725;DHT22;43472;48.980;9.646;2023-02-28T15:29:57;10.10;72.40
28725;DHT22;43472;48.980;9.646;2023-02-28T15:45:34;8.80;75.90
28725;DHT22;43472;48.980;9.646;2023-02-28T15:50:40;8.40;77.10
28725;DHT22;43472;48.980;9.646;2023-02-28T15:55:43;8.30;77.70
28725;DHT22;43472;48.980;9.646;2023-02-28T16:01:07;8.00;77.60
28725;DHT22;43472;48.980;9.646;2023-02-28T16:11:33;7.50;79.80
28725;DHT22;43472;48.980;9.646;2023-02-28T16:16:43;7.20;79.90
28725;DHT22;43472;48.980;9.646;2023-02-28T16:21:46;6.80;82.30
28725;DHT22;43472;48.980;9.646;2023-02-28T16:26:49;6.80;82.70
28725;DHT22;43472;48.980;9.646;2023-02-28T16:31:53;6.80;82.90
28725;DHT22;43472;48.980;9.646;2023-02-28T16:36:55;6.80;83.30
28725;DHT22;43472;48.980;9.646;2023-02-28T16:41:57;6.70;85.00
28725;DHT22;43472;48.980;9.646;2023-02-28T16:47:03;6.60;85.80
28725;DHT22;43472;48.980;9.646;2023-02-28T16:52:05;6.40;86.50
28725;DHT22;43472;48.980;9.646;2023-02-28T16:57:18;6.40;88.70
28725;DHT22;43472;48.980;9.646;2023-02-28T17:02:21;6.00;88.80
28725;DHT22;43472;48.980;9.646;2023-02-28T17:07:23;6.00;89.00
28725;DHT22;43472;48.980;9.646;2023-02-28T17:12:25;5.80;89.60
28725;DHT22;43472;48.980;9.646;2023-02-28T17:17:28;5.60;90.40
28725;DHT22;43472;48.980;9.646;2023-02-28T17:22:31;5.60;90.80
28725;DHT22;43472;48.980;9.646;2023-02-28T17:27:33;5.40;91.00
28725;DHT22;43472;48.980;9.646;2023-02-28T17:32:35;5.20;91.20
28725;DHT22;43472;48.980;9.646;2023-02-28T17:37:37;5.30;91.30
28725;DHT22;43472;48.980;9.646;2023-02-28T17:42:39;5.10;91.70
28725;DHT22;43472;48.980;9.646;2023-02-28T17:47:43;4.90;92.00
28725;DHT22;43472;48.980;9.646;2023-02-28T17:52:45;4.70;92.80
28725;DHT22;43472;48.980;9.646;2023-02-28T17:57:48;4.60;92.90
28725;DHT22;43472;48.980;9.646;2023-02-28T18:02:49;4.50;93.30
28725;DHT22;43472;48.980;9.646;2023-02-28T18:07:52;4.20;93.70
28725;DHT22;43472;48.980;9.646;2023-02-28T18:12:54;4.20;94.10
28725;DHT22;43472;48.980;9.646;2023-02-28T18:17:56;4.10;94.30
28725;DHT22;43472;48.980;9.646;2023-02-28T18:22:58;4.00;94.50
28725;DHT22;43472;48.980;9.646;2023-02-28T18:28:00;4.00;94.70
28725;DHT22;43472;48.980;9.646;2023-02-28T18:33:03;3.90;94.70
28725;DHT22;43472;48.980;9.646;2023-02-28T18:38:23;3.80;95.10
28725;DHT22;43472;48.980;9.646;2023-02-28T18:43:26;3.70;95.30
28725;DHT22;43472;48.980;9.646;2023-02-28T18:48:28;3.60;95.40
28725;DHT22;43472;48.980;9.646;2023-02-28T18:53:33;3.50;95.70
28725;DHT22;43472;48.980;9.646;2023-02-28T18:58:35;3.60;95.90
28725;DHT22;43472;48.980;9.646;2023-02-28T19:03:37;3.50;95.80
28725;DHT22;43472;48.980;9.646;2023-02-28T19:08:39;3.40;96.10
28725;DHT22;43472;48.980;9.646;2023-02-28T19:13:41;3.20;96.80
28725;DHT22;43472;48.980;9.646;2023-02-28T19:18:44;3.20;96.40
28725;DHT22;43472;48.980;9.646;2023-02-28T19:23:48;3.20;96.30
28725;DHT22;43472;48.980;9.646;2023-02-28T19:28:50;3.10;96.50
28725;DHT22;43472;48.980;9.646;2023-02-28T19:33:52;3.10;96.80
28725;DHT22;43472;48.980;9.646;2023-02-28T19:38:54;2.90;96.90
28725;DHT22;43472;48.980;9.646;2023-02-28T19:43:56;3.00;97.00
28725;DHT22;43472;48.980;9.646;2023-02-28T19:48:58;2.90;97.10
28725;DHT22;43472;48.980;9.646;2023-02-28T19:54:00;4.60;97.70
28725;DHT22;43472;48.980;9.646;2023-02-28T19:59:02;2.90;97.50
28725;DHT22;43472;48.980;9.646;2023-02-28T20:04:07;2.90;97.80
28725;DHT22;43472;48.980;9.646;2023-02-28T20:09:10;2.80;97.90
28725;DHT22;43472;48.980;9.646;2023-02-28T20:14:13;2.70;97.90
28725;DHT22;43472;48.980;9.646;2023-02-28T20:19:15;2.70;98.10
28725;DHT22;43472;48.980;9.646;2023-02-28T20:24:17;2.60;98.30
28725;DHT22;43472;48.980;9.646;2023-02-28T20:29:19;2.60;98.30
28725;DHT22;43472;48.980;9.646;2023-02-28T20:34:21;2.50;98.60
28725;DHT22;43472;48.980;9.646;2023-02-28T20:39:24;2.50;98.60
28725;DHT22;43472;48.980;9.646;2023-02-28T20:44:26;2.50;98.80
28725;DHT22;43472;48.980;9.646;2023-02-28T20:49:28;2.40;99.00
28725;DHT22;43472;48.980;9.646;2023-02-28T20:54:30;2.30;99.30
28725;DHT22;43472;48.980;9.646;2023-02-28T20:59:32;2.30;98.90
28725;DHT22;43472;48.980;9.646;2023-02-28T21:04:35;2.30;99.00
28725;DHT22;43472;48.980;9.646;2023-02-28T21:09:37;2.30;99.50
28725;DHT22;43472;48.980;9.646;2023-02-28T21:14:39;2.20;99.40
28725;DHT22;43472;48.980;9.646;2023-02-28T21:19:40;2.20;99.20
28725;DHT22;43472;48.980;9.646;2023-02-28T21:24:42;2.10;99.20
28725;DHT22;43472;48.980;9.646;2023-02-28T21:29:44;2.20;99.70
28725;DHT22;43472;48.980;9.646;2023-02-28T21:34:46;2.00;99.80
28725;DHT22;43472;48.980;9.646;2023-02-28T21:39:49;1.90;99.90
28725;DHT22;43472;48.980;9.646;2023-02-28T21:44:51;1.90;99.90
28725;DHT22;43472;48.980;9.646;2023-02-28T21:49:53;1.80;99.90
28725;DHT22;43472;48.980;9.646;2023-02-28T21:54:54;1.80;99.90
28725;DHT22;43472;48.980;9.646;2023-02-28T21:59:56;1.80;99.90
28725;DHT22;43472;48.980;9.646;2023-02-28T22:04:58;1.80;99.90
28725;DHT22;43472;48.980;9.646;2023-02-28T22:10:04;1.90;99.90
28725;DHT22;43472;48.980;9.646;2023-02-28T22:15:06;1.90;99.90
28725;DHT22;43472;48.980;9.646;2023-02-28T22:20:09;1.90;99.90
28725;DHT22;43472;48.980;9.646;2023-02-28T22:25:13;1.80;99.90
28725;DHT22;43472;48.980;9.646;2023-02-28T22:30:15;1.80;99.90
28725;DHT22;43472;48.980;9.646;2023-02-28T22:35:17;1.70;99.90
28725;DHT22;43472;48.980;9.646;2023-02-28T22:40:20;1.70;99.90
28725;DHT22;43472;48.980;9.646;2023-02-28T22:45:22;1.70;99.90
28725;DHT22;43472;48.980;9.646;2023-02-28T22:50:24;1.60;99.90
28725;DHT22;43472;48.980;9.646;2023-02-28T22:55:26;1.50;99.90
28725;DHT22;43472;48.980;9.646;2023-02-28T23:00:28;1.60;99.90
28725;DHT22;43472;48.980;9.646;2023-02-28T23:05:30;1.50;99.90
28725;DHT22;43472;48.980;9.646;2023-02-28T23:10:31;1.50;99.90
28725;DHT22;43472;48.980;9.646;2023-02-28T23:15:33;1.50;99.90
28725;DHT22;43472;48.980;9.646;2023-02-28T23:20:35;1.30;99.90
28725;DHT22;43472;48.980;9.646;2023-02-28T23:25:40;1.20;99.90
28725;DHT22;43472;48.980;9.646;2023-02-28T23:30:42;1.20;99.90
28725;DHT22;43472;48.980;9.646;2023-02-28T23:35:44;1.30;99.90
28725;DHT22;43472;48.980;9.646;2023-02-28T23:40:46;1.20;99.90
28725;DHT22;43472;48.980;9.646;2023-02-28T23:45:57;1.20;99.90
28725;DHT22;43472;48.980;9.646;2023-02-28T23:51:04;1.30;99.90
28725;DHT22;43472;48.980;9.646;2023-02-28T23:56:11;1.10;99.90
